Time;durP1;ratioP1;P1;durP2;ratioP2;P2;SDS_P1;SDS_P2;PMS_P1;PMS_P2;Temp;Humidity;BMP_temperature;BMP_pressure;BME280_temperature;BME280_humidity;BME280_pressure;Samples;Min_cycle;Max_cycle;Signal;HPM_P1;HPM_P2
2021/03/26 00:01:40;;;;;;;10.50;9.50;;;2.80;72.40;;;;;;5182971;28;20184;-69
2021/03/26 00:04:12;;;;;;;11.23;10.13;;;2.80;72.40;;;;;;5186974;28;20045;-68
2021/03/26 00:06:47;;;;;;;13.07;9.80;;;2.80;72.10;;;;;;5186009;28;20136;-68
2021/03/26 00:09:21;;;;;;;11.65;10.20;;;2.80;72.20;;;;;;5200702;28;20057;-67
2021/03/26 00:11:55;;;;;;;11.60;9.75;;;2.90;71.70;;;;;;5182626;28;20126;-67
2021/03/26 00:14:26;;;;;;;12.05;10.85;;;3.00;70.30;;;;;;5187048;28;20073;-67
2021/03/26 00:16:58;;;;;;;10.70;9.60;;;3.00;69.30;;;;;;5170398;28;20136;-68
2021/03/26 00:19:29;;;;;;;10.98;9.40;;;3.00;68.90;;;;;;5184740;28;20093;-68
2021/03/26 00:22:02;;;;;;;10.95;9.60;;;2.90;69.20;;;;;;5186525;28;20168;-68
2021/03/26 00:24:33;;;;;;;10.98;9.88;;;3.00;69.00;;;;;;5183123;28;20124;-67
2021/03/26 00:27:05;;;;;;;10.40;9.40;;;3.00;69.00;;;;;;5184087;28;20049;-67
2021/03/26 00:29:36;;;;;;;10.75;9.65;;;3.00;69.10;;;;;;5186724;28;20808;-68
2021/03/26 00:32:09;;;;;;;11.00;9.20;;;2.90;69.50;;;;;;5185685;28;20515;-69
2021/03/26 00:34:40;;;;;;;10.85;9.75;;;2.90;69.20;;;;;;5191888;28;20112;-67
2021/03/26 00:37:12;;;;;;;11.05;9.90;;;2.80;68.50;;;;;;5189698;28;20046;-69
2021/03/26 00:39:43;;;;;;;11.50;9.57;;;2.80;67.90;;;;;;5188480;28;20096;-67
2021/03/26 00:42:15;;;;;;;10.80;9.70;;;2.80;69.20;;;;;;5191098;28;20136;-68
2021/03/26 00:44:47;;;;;;;10.52;9.43;;;2.70;70.40;;;;;;5189507;28;20041;-68
2021/03/26 00:47:18;;;;;;;10.98;9.88;;;2.70;70.50;;;;;;5189115;28;20415;-67
2021/03/26 00:49:50;;;;;;;10.80;9.68;;;2.70;71.20;;;;;;5196409;28;20045;-68
2021/03/26 00:52:21;;;;;;;12.82;9.73;;;2.70;71.30;;;;;;5193502;28;20557;-68
2021/03/26 00:54:53;;;;;;;10.95;9.40;;;2.70;71.10;;;;;;5204034;28;20053;-67
2021/03/26 00:57:25;;;;;;;11.85;10.00;;;2.70;70.90;;;;;;5192060;28;20037;-67
2021/03/26 00:59:57;;;;;;;10.88;9.75;;;2.60;71.60;;;;;;5186761;28;20096;-67
2021/03/26 01:02:28;;;;;;;11.85;9.60;;;2.60;71.80;;;;;;5192185;28;20041;-69
2021/03/26 01:05:00;;;;;;;11.02;9.95;;;2.60;72.00;;;;;;5201448;28;20051;-68
2021/03/26 01:07:32;;;;;;;11.95;10.25;;;2.50;72.20;;;;;;5188270;28;20069;-68
2021/03/26 01:10:09;;;;;;;11.05;9.95;;;2.50;72.40;;;;;;5187200;28;20061;-67
2021/03/26 01:12:41;;;;;;;11.38;10.18;;;2.50;72.50;;;;;;5188714;28;20097;-69
2021/03/26 01:15:14;;;;;;;11.38;9.73;;;2.50;72.50;;;;;;5191593;28;20053;-68
2021/03/26 01:17:49;;;;;;;11.55;9.82;;;2.40;72.50;;;;;;5200977;28;20052;-68
2021/03/26 01:20:25;;;;;;;11.23;9.57;;;2.40;72.60;;;;;;5185904;28;20037;-68
2021/03/26 01:22:58;;;;;;;11.25;10.15;;;2.40;72.30;;;;;;5191936;28;20551;-68
2021/03/26 01:25:32;;;;;;;13.18;10.75;;;2.30;71.30;;;;;;5188929;28;20045;-68
2021/03/26 01:28:33;;;;;;;10.77;9.50;;;2.40;72.00;;;;;;5176778;28;20060;-68
2021/03/26 01:31:41;;;;;;;11.43;9.38;;;2.30;71.20;;;;;;5171972;28;20097;-69
2021/03/26 01:34:13;;;;;;;10.75;9.70;;;2.30;71.70;;;;;;5185646;28;20144;-69
2021/03/26 01:36:56;;;;;;;10.05;9.05;;;2.20;73.00;;;;;;5188428;28;20061;-68
2021/03/26 01:39:28;;;;;;;9.82;8.93;;;2.20;73.70;;;;;;5193300;28;20474;-69
2021/03/26 01:42:18;;;;;;;10.68;9.57;;;2.20;73.70;;;;;;5183934;28;20091;-68
2021/03/26 01:44:50;;;;;;;10.43;9.32;;;2.20;73.60;;;;;;5185977;28;20648;-67
2021/03/26 01:47:28;;;;;;;10.95;9.48;;;2.30;73.00;;;;;;5193917;28;20072;-68
2021/03/26 01:50:00;;;;;;;10.45;9.35;;;2.30;71.70;;;;;;5185176;28;20049;-69
2021/03/26 01:52:31;;;;;;;10.00;9.00;;;2.40;71.20;;;;;;5190437;28;20713;-66
2021/03/26 01:55:05;;;;;;;10.23;9.13;;;2.30;71.60;;;;;;5182953;28;20073;-67
2021/03/26 01:57:38;;;;;;;11.55;9.30;;;2.30;72.50;;;;;;5184213;28;20144;-68
2021/03/26 02:00:42;;;;;;;11.23;9.50;;;2.20;72.90;;;;;;5191306;28;20104;-66
2021/03/26 02:03:22;;;;;;;10.88;9.65;;;2.20;72.60;;;;;;5190648;28;20042;-68
2021/03/26 02:06:01;;;;;;;11.35;9.13;;;2.10;73.00;;;;;;5202400;28;20514;-68
2021/03/26 02:08:39;;;;;;;9.73;8.73;;;2.20;72.90;;;;;;5185482;28;20045;-67
2021/03/26 02:11:35;;;;;;;10.43;9.20;;;2.20;73.20;;;;;;5186999;28;20037;-69
2021/03/26 02:14:14;;;;;;;10.65;9.07;;;2.20;73.40;;;;;;5202753;28;20068;-67
2021/03/26 02:16:48;;;;;;;12.18;9.57;;;2.10;73.70;;;;;;5190239;28;20052;-67
2021/03/26 02:19:48;;;;;;;11.27;9.38;;;2.10;73.80;;;;;;5186979;28;20095;-67
2021/03/26 02:22:23;;;;;;;10.90;9.80;;;2.10;73.10;;;;;;5186181;28;20477;-67
2021/03/26 02:24:54;;;;;;;10.75;9.70;;;2.00;72.00;;;;;;5192979;28;20045;-67
2021/03/26 02:27:34;;;;;;;9.73;8.82;;;2.10;72.60;;;;;;5187706;28;20143;-68
2021/03/26 02:30:19;;;;;;;9.73;8.73;;;2.10;73.70;;;;;;5194449;28;20148;-67
2021/03/26 02:32:54;;;;;;;10.02;9.07;;;2.10;73.80;;;;;;5201340;28;20054;-69
2021/03/26 02:35:42;;;;;;;9.93;8.93;;;2.10;73.90;;;;;;5186607;28;20096;-67
2021/03/26 02:38:37;;;;;;;12.35;9.50;;;2.20;72.80;;;;;;5188401;28;20038;-67
2021/03/26 02:41:34;;;;;;;12.52;9.95;;;2.30;71.00;;;;;;5176913;28;20037;-67
2021/03/26 02:44:18;;;;;;;10.57;9.45;;;2.30;69.90;;;;;;5177243;28;20061;-68
2021/03/26 02:47:03;;;;;;;10.27;9.27;;;2.30;69.50;;;;;;5192477;28;20045;-68
2021/03/26 02:50:04;;;;;;;10.60;9.48;;;2.30;69.70;;;;;;5194397;28;20054;-68
2021/03/26 02:53:11;;;;;;;12.32;9.38;;;2.20;69.80;;;;;;5189275;28;20049;-67
2021/03/26 02:56:03;;;;;;;13.05;9.48;;;2.20;71.10;;;;;;5193514;28;20403;-68
2021/03/26 02:58:47;;;;;;;9.32;8.38;;;2.10;70.20;;;;;;5187643;28;20123;-68
2021/03/26 03:01:43;;;;;;;9.52;8.63;;;2.10;71.80;;;;;;5185981;28;20514;-69
2021/03/26 03:04:26;;;;;;;10.95;9.27;;;2.10;71.90;;;;;;5193410;28;20776;-68
2021/03/26 03:07:06;;;;;;;12.07;9.20;;;2.10;70.70;;;;;;5185226;28;20057;-69
2021/03/26 03:10:17;;;;;;;11.25;9.73;;;2.00;71.10;;;;;;5188515;28;20046;-68
2021/03/26 03:12:51;;;;;;;9.55;8.65;;;1.90;71.70;;;;;;5188332;28;20160;-68
2021/03/26 03:15:30;;;;;;;9.32;8.43;;;1.70;73.90;;;;;;5185029;28;20076;-69
2021/03/26 03:18:16;;;;;;;9.73;8.68;;;1.70;74.10;;;;;;5200153;28;20132;-68
2021/03/26 03:21:12;;;;;;;9.52;8.52;;;1.80;73.90;;;;;;5185743;28;20389;-68
2021/03/26 03:23:53;;;;;;;9.73;8.70;;;1.90;73.80;;;;;;5192726;28;20474;-71
2021/03/26 03:26:47;;;;;;;11.13;8.45;;;1.80;73.90;;;;;;5193825;28;20463;-68
2021/03/26 03:29:45;;;;;;;12.50;10.38;;;1.80;73.60;;;;;;5185581;28;20042;-67
2021/03/26 03:32:43;;;;;;;12.20;9.32;;;1.80;71.60;;;;;;5183470;28;20050;-67
2021/03/26 03:35:31;;;;;;;11.32;9.10;;;1.90;71.10;;;;;;5187947;28;20049;-67
2021/03/26 03:38:42;;;;;;;10.45;9.27;;;1.80;71.10;;;;;;5187838;28;20157;-67
2021/03/26 03:41:50;;;;;;;12.20;8.60;;;1.80;71.60;;;;;;5199914;28;20099;-67
2021/03/26 03:44:24;;;;;;;8.90;7.78;;;1.80;71.10;;;;;;5202938;28;20519;-65
2021/03/26 03:47:05;;;;;;;10.15;8.57;;;1.80;71.00;;;;;;5201144;28;20045;-67
2021/03/26 03:50:08;;;;;;;10.63;9.02;;;1.90;70.30;;;;;;5194780;28;20132;-66
2021/03/26 03:53:10;;;;;;;10.13;9.00;;;1.80;69.30;;;;;;5184679;28;20083;-66
2021/03/26 03:55:58;;;;;;;9.25;8.32;;;1.80;69.80;;;;;;5184513;28;20064;-67
2021/03/26 03:58:35;;;;;;;10.60;9.32;;;1.80;69.80;;;;;;5198713;28;20038;-65
2021/03/26 04:01:30;;;;;;;10.43;9.32;;;1.70;70.70;;;;;;5184798;28;20045;-65
2021/03/26 04:04:18;;;;;;;10.50;9.02;;;1.60;70.70;;;;;;5183127;28;20053;-67
2021/03/26 04:07:04;;;;;;;10.63;9.18;;;1.50;71.10;;;;;;5183499;28;20506;-66
2021/03/26 04:09:45;;;;;;;13.23;9.35;;;1.40;72.70;;;;;;5182020;28;20434;-66
2021/03/26 04:12:23;;;;;;;10.18;9.18;;;1.40;72.50;;;;;;5189403;28;20068;-66
2021/03/26 04:15:07;;;;;;;9.48;8.48;;;1.40;72.00;;;;;;5183755;28;20034;-66
2021/03/26 04:18:19;;;;;;;10.18;8.60;;;1.40;74.00;;;;;;5182651;28;20050;-66
2021/03/26 04:21:24;;;;;;;10.35;9.25;;;1.30;75.00;;;;;;5186749;28;20038;-66
2021/03/26 04:24:25;;;;;;;10.00;8.65;;;1.30;75.50;;;;;;5190487;28;20511;-65
2021/03/26 04:27:28;;;;;;;10.43;9.35;;;1.30;75.40;;;;;;5184273;28;20556;-66
2021/03/26 04:30:26;;;;;;;12.48;9.38;;;1.40;75.40;;;;;;5217878;28;20053;-65
2021/03/26 04:33:05;;;;;;;10.30;9.30;;;1.40;75.60;;;;;;5198956;28;20128;-65
2021/03/26 04:35:38;;;;;;;10.32;9.25;;;1.40;75.20;;;;;;5179959;28;20753;-64
2021/03/26 04:38:36;;;;;;;10.88;9.13;;;1.40;73.30;;;;;;5186989;28;20049;-65
2021/03/26 04:41:32;;;;;;;9.82;8.77;;;1.40;74.10;;;;;;5191449;28;20046;-66
2021/03/26 04:44:20;;;;;;;10.93;8.65;;;1.30;73.20;;;;;;5185413;28;20046;-66
2021/03/26 04:47:39;;;;;;;9.70;8.70;;;1.20;73.10;;;;;;5187161;28;20045;-65
2021/03/26 04:50:32;;;;;;;12.73;9.45;;;1.20;72.60;;;;;;5106296;28;20057;-66
2021/03/26 04:53:17;;;;;;;10.52;9.25;;;1.20;73.20;;;;;;5131554;28;20070;-65
2021/03/26 04:55:56;;;;;;;9.80;8.77;;;1.10;73.00;;;;;;5159455;28;20042;-66
2021/03/26 04:59:04;;;;;;;10.25;9.00;;;1.10;72.50;;;;;;5162761;28;20097;-66
2021/03/26 05:02:00;;;;;;;11.10;9.15;;;1.10;73.40;;;;;;5167363;28;20038;-65
2021/03/26 05:04:36;;;;;;;15.55;8.50;;;1.10;73.50;;;;;;5185682;28;20483;-66
2021/03/26 05:07:16;;;;;;;9.90;8.80;;;1.10;73.20;;;;;;5164185;28;20045;-66
2021/03/26 05:09:54;;;;;;;9.52;8.63;;;1.10;74.70;;;;;;5154596;28;20043;-65
2021/03/26 05:12:36;;;;;;;10.27;9.18;;;1.00;76.10;;;;;;5191925;28;20573;-66
2021/03/26 05:15:38;;;;;;;9.68;8.68;;;1.10;75.60;;;;;;5161612;28;20072;-65
2021/03/26 05:18:29;;;;;;;10.45;8.98;;;1.00;75.50;;;;;;5168557;28;20159;-66
2021/03/26 05:21:12;;;;;;;9.55;8.32;;;1.10;76.00;;;;;;5167667;28;20042;-65
2021/03/26 05:24:32;;;;;;;10.30;8.43;;;1.10;74.80;;;;;;5199343;28;20076;-66
2021/03/26 05:27:39;;;;;;;9.50;8.07;;;1.20;74.20;;;;;;5119972;28;20090;-66
2021/03/26 05:30:28;;;;;;;10.55;8.52;;;1.30;74.40;;;;;;5155160;28;20054;-66
2021/03/26 05:33:51;;;;;;;9.50;8.50;;;1.20;75.10;;;;;;5173290;28;20058;-65
2021/03/26 05:36:35;;;;;;;10.50;8.13;;;1.20;75.30;;;;;;5160070;28;20132;-66
2021/03/26 05:39:31;;;;;;;10.30;8.75;;;1.20;75.10;;;;;;5165517;28;20133;-66
2021/03/26 05:42:48;;;;;;;10.60;9.50;;;1.20;75.30;;;;;;5169629;28;20084;-65
2021/03/26 05:45:55;;;;;;;10.32;8.45;;;1.30;74.30;;;;;;5168194;28;20083;-67
2021/03/26 05:49:23;;;;;;;9.93;8.93;;;1.30;74.80;;;;;;5171888;28;20049;-66
2021/03/26 05:51:55;;;;;;;10.20;8.95;;;1.40;74.50;;;;;;5184897;28;20038;-66
2021/03/26 05:54:51;;;;;;;9.77;8.70;;;1.60;74.10;;;;;;5170032;28;20065;-66
2021/03/26 05:57:40;;;;;;;10.27;7.82;;;1.70;72.50;;;;;;5164430;28;20116;-66
2021/03/26 06:01:05;;;;;;;11.20;8.45;;;1.90;71.60;;;;;;5167269;28;20034;-66
2021/03/26 06:04:14;;;;;;;10.32;8.35;;;1.90;71.40;;;;;;5113811;29;20133;-68
2021/03/26 06:07:29;;;;;;;10.27;8.48;;;1.80;71.60;;;;;;5128888;28;20189;-66
2021/03/26 06:10:41;;;;;;;10.55;9.25;;;1.80;71.90;;;;;;5186301;28;20557;-67
2021/03/26 06:14:06;;;;;;;15.32;11.43;;;1.90;71.90;;;;;;5187064;28;20114;-66
2021/03/26 06:17:14;;;;;;;14.57;11.93;;;2.00;74.10;;;;;;5184437;28;20526;-66
2021/03/26 06:20:25;;;;;;;13.07;9.90;;;2.20;73.80;;;;;;5152791;28;20549;-66
2021/03/26 06:23:53;;;;;;;9.65;8.65;;;2.50;73.30;;;;;;5184423;28;20695;-66
2021/03/26 06:26:51;;;;;;;8.93;8.02;;;2.80;71.90;;;;;;5184063;28;20601;-66
2021/03/26 06:29:56;;;;;;;9.68;8.68;;;2.90;71.30;;;;;;5184136;28;20133;-66
2021/03/26 06:33:03;;;;;;;9.85;8.85;;;3.00;70.20;;;;;;5186116;28;20037;-65
2021/03/26 06:36:27;;;;;;;10.70;9.60;;;3.20;69.90;;;;;;5181537;28;20046;-64
2021/03/26 06:39:29;;;;;;;13.45;9.45;;;3.30;69.90;;;;;;5151682;28;20163;-66
2021/03/26 06:42:17;;;;;;;9.40;8.48;;;3.50;69.60;;;;;;5183549;28;20054;-65
2021/03/26 06:45:25;;;;;;;13.10;9.55;;;3.70;69.90;;;;;;5185199;28;20119;-65
2021/03/26 06:48:18;;;;;;;12.00;9.82;;;3.80;68.90;;;;;;5185421;28;20051;-64
2021/03/26 06:50:57;;;;;;;10.82;9.80;;;4.00;68.90;;;;;;5180621;28;20037;-66
2021/03/26 06:53:40;;;;;;;11.07;9.48;;;4.10;68.50;;;;;;5186944;28;20078;-66
2021/03/26 06:56:26;;;;;;;12.65;10.05;;;4.20;67.70;;;;;;5186973;28;20033;-66
2021/03/26 06:59:23;;;;;;;11.32;10.23;;;4.20;67.90;;;;;;5185496;28;20891;-66
2021/03/26 07:02:06;;;;;;;12.05;10.38;;;4.20;67.40;;;;;;5185479;28;20042;-65
2021/03/26 07:05:11;;;;;;;12.50;11.18;;;4.00;67.60;;;;;;5185614;28;20188;-65
2021/03/26 07:07:52;;;;;;;11.85;10.23;;;3.90;68.10;;;;;;5187575;28;20053;-65
2021/03/26 07:10:32;;;;;;;12.30;11.00;;;3.90;68.50;;;;;;5182353;28;20048;-66
2021/03/26 07:13:45;;;;;;;14.13;10.98;;;4.00;68.30;;;;;;5184012;28;20095;-66
2021/03/26 07:16:17;;;;;;;11.65;10.05;;;4.30;67.50;;;;;;5184098;28;20041;-65
2021/03/26 07:19:22;;;;;;;13.32;10.00;;;4.40;67.50;;;;;;5182897;28;20044;-65
2021/03/26 07:22:28;;;;;;;12.70;10.43;;;4.60;67.10;;;;;;5183139;28;20034;-66
2021/03/26 07:25:47;;;;;;;11.77;10.27;;;4.80;67.00;;;;;;5182850;28;20045;-66
2021/03/26 07:28:35;;;;;;;10.80;9.70;;;5.10;66.50;;;;;;5168125;28;20466;-66
2021/03/26 07:31:38;;;;;;;11.80;10.38;;;5.20;65.50;;;;;;5198774;28;20103;-65
2021/03/26 07:34:26;;;;;;;12.75;11.40;;;5.20;66.50;;;;;;5183771;28;20148;-65
2021/03/26 07:37:10;;;;;;;12.70;9.75;;;5.40;65.90;;;;;;5183193;28;20522;-66
2021/03/26 07:40:01;;;;;;;12.35;11.00;;;5.50;64.90;;;;;;5186426;28;20131;-67
2021/03/26 07:42:59;;;;;;;12.10;10.77;;;5.60;64.60;;;;;;5179807;28;20045;-66
2021/03/26 07:45:30;;;;;;;12.15;10.82;;;5.70;64.00;;;;;;5184146;28;20122;-65
2021/03/26 07:48:17;;;;;;;11.82;10.63;;;6.00;63.10;;;;;;5183740;28;20563;-66
2021/03/26 07:50:57;;;;;;;12.88;11.02;;;6.10;61.60;;;;;;5184343;28;20670;-65
2021/03/26 07:53:56;;;;;;;12.95;10.95;;;6.20;61.50;;;;;;5185504;28;20557;-65
2021/03/26 07:56:33;;;;;;;12.35;11.13;;;6.40;61.30;;;;;;5182262;28;20050;-66
2021/03/26 07:59:05;;;;;;;11.98;10.88;;;6.70;60.20;;;;;;5187280;28;20045;-66
2021/03/26 08:02:10;;;;;;;13.32;11.27;;;6.80;59.90;;;;;;5184599;28;20046;-66
2021/03/26 08:04:59;;;;;;;12.02;10.82;;;7.00;60.50;;;;;;5185479;28;20033;-67
2021/03/26 08:08:11;;;;;;;12.27;11.00;;;7.30;60.40;;;;;;5183522;28;20585;-65
2021/03/26 08:11:28;;;;;;;12.18;11.07;;;7.40;57.80;;;;;;5181671;28;20042;-67
2021/03/26 08:14:31;;;;;;;12.50;11.23;;;7.70;58.70;;;;;;5163757;28;20107;-66
2021/03/26 08:17:38;;;;;;;12.63;11.43;;;8.00;58.40;;;;;;5178872;28;20048;-66
2021/03/26 08:20:20;;;;;;;11.73;10.30;;;8.20;57.60;;;;;;5185007;28;20049;-65
2021/03/26 08:23:10;;;;;;;12.50;11.30;;;8.50;57.60;;;;;;5182824;28;20534;-65
2021/03/26 08:26:02;;;;;;;12.55;11.35;;;8.70;56.00;;;;;;5186015;28;20041;-66
2021/03/26 08:28:46;;;;;;;11.85;10.65;;;8.90;54.30;;;;;;5185552;28;20044;-65
2021/03/26 08:31:23;;;;;;;12.05;10.95;;;9.10;54.30;;;;;;5184039;28;20119;-65
2021/03/26 08:34:03;;;;;;;12.85;11.07;;;9.20;50.80;;;;;;5184214;28;20679;-66
2021/03/26 08:36:50;;;;;;;12.75;11.55;;;9.40;54.40;;;;;;5186097;28;20053;-65
2021/03/26 08:39:28;;;;;;;13.18;11.82;;;9.60;52.80;;;;;;5183654;28;20038;-66
2021/03/26 08:42:50;;;;;;;11.60;10.60;;;9.80;53.70;;;;;;5182601;28;20124;-66
2021/03/26 08:45:32;;;;;;;12.50;11.23;;;10.00;51.60;;;;;;5170600;28;20479;-65
2021/03/26 08:48:22;;;;;;;13.05;11.85;;;10.20;51.30;;;;;;5182411;28;20128;-65
2021/03/26 08:51:42;;;;;;;12.23;11.05;;;10.40;50.40;;;;;;5180206;28;20526;-65
2021/03/26 08:54:32;;;;;;;11.90;10.80;;;10.50;50.50;;;;;;5179266;28;20131;-65
2021/03/26 08:57:16;;;;;;;14.35;11.35;;;10.60;49.70;;;;;;5185690;28;20062;-65
2021/03/26 09:00:14;;;;;;;13.23;11.48;;;10.80;47.90;;;;;;5188220;28;20041;-66
2021/03/26 09:03:08;;;;;;;13.30;12.00;;;11.00;48.60;;;;;;5191383;28;20049;-65
2021/03/26 09:06:02;;;;;;;13.23;11.85;;;11.10;48.00;;;;;;5187082;28;20042;-65
2021/03/26 09:08:54;;;;;;;13.40;11.82;;;11.30;49.20;;;;;;5185796;28;20080;-65
2021/03/26 09:11:56;;;;;;;15.68;12.65;;;11.50;49.30;;;;;;5161107;28;20089;-65
2021/03/26 09:14:51;;;;;;;13.63;12.23;;;11.60;47.10;;;;;;5168342;28;20045;-65
2021/03/26 09:17:51;;;;;;;13.25;12.05;;;11.60;48.80;;;;;;5188314;28;20060;-66
2021/03/26 09:20:39;;;;;;;14.25;12.80;;;11.70;48.90;;;;;;5187856;28;20046;-66
2021/03/26 09:23:40;;;;;;;13.55;11.93;;;11.90;49.50;;;;;;5187569;28;20470;-66
2021/03/26 09:26:39;;;;;;;13.10;11.80;;;12.10;49.50;;;;;;5186695;28;20037;-66
2021/03/26 09:29:34;;;;;;;13.18;11.98;;;12.20;48.20;;;;;;5188199;28;20065;-66
2021/03/26 09:32:09;;;;;;;13.75;12.38;;;12.40;48.30;;;;;;5189188;28;20590;-67
2021/03/26 09:34:48;;;;;;;13.98;11.80;;;12.40;47.30;;;;;;5184981;28;20049;-65
2021/03/26 09:37:27;;;;;;;14.02;12.45;;;12.50;47.70;;;;;;5188408;28;20046;-65
2021/03/26 09:40:01;;;;;;;13.80;12.55;;;12.60;48.00;;;;;;5191816;28;20056;-65
2021/03/26 09:42:47;;;;;;;14.70;13.18;;;12.60;46.60;;;;;;5188345;28;20053;-65
2021/03/26 09:45:28;;;;;;;13.80;12.52;;;12.70;47.60;;;;;;5188235;28;20049;-66
2021/03/26 09:48:25;;;;;;;15.55;12.88;;;12.80;47.60;;;;;;5189597;28;20053;-65
2021/03/26 09:51:18;;;;;;;15.05;13.48;;;13.00;47.30;;;;;;5188543;28;20091;-65
2021/03/26 09:53:52;;;;;;;13.77;12.38;;;13.00;46.60;;;;;;5194007;28;20694;-65
2021/03/26 09:56:48;;;;;;;13.23;11.82;;;13.10;46.50;;;;;;5201474;28;20060;-66
2021/03/26 09:59:46;;;;;;;13.95;12.55;;;13.20;46.70;;;;;;5202614;28;20050;-65
2021/03/26 10:02:50;;;;;;;14.55;13.02;;;13.40;46.10;;;;;;5188567;28;20129;-66
2021/03/26 10:05:28;;;;;;;14.02;12.43;;;13.40;44.40;;;;;;5181289;28;20050;-65
2021/03/26 10:08:08;;;;;;;14.30;12.52;;;13.60;44.50;;;;;;5187512;28;20476;-65
2021/03/26 10:13:22;;;;;;;14.15;12.68;;;13.80;44.80;;;;;;5188553;28;20068;-65
2021/03/26 10:16:06;;;;;;;14.07;12.77;;;13.80;44.30;;;;;;5189828;28;20254;-66
2021/03/26 10:18:54;;;;;;;14.80;13.23;;;13.90;44.20;;;;;;5186055;28;20399;-65
2021/03/26 10:21:29;;;;;;;14.05;12.75;;;14.00;44.00;;;;;;5183988;28;20058;-65
2021/03/26 10:24:20;;;;;;;14.50;13.10;;;14.00;42.50;;;;;;5187245;28;20172;-66
2021/03/26 10:27:05;;;;;;;14.70;13.40;;;14.10;42.10;;;;;;5186125;28;20034;-65
2021/03/26 10:30:04;;;;;;;14.48;13.18;;;14.10;42.50;;;;;;5187962;28;20566;-66
2021/03/26 10:32:41;;;;;;;14.77;13.30;;;14.30;43.20;;;;;;5189095;28;20050;-66
2021/03/26 10:35:27;;;;;;;14.30;12.88;;;14.40;40.90;;;;;;5187812;28;20052;-65
2021/03/26 10:38:21;;;;;;;14.25;12.98;;;14.40;41.60;;;;;;5183467;28;20118;-66
2021/03/26 10:41:06;;;;;;;13.55;12.25;;;14.50;39.80;;;;;;5184581;28;20113;-66
2021/03/26 10:44:02;;;;;;;13.40;12.20;;;14.60;39.70;;;;;;5219125;28;20092;-66
2021/03/26 10:46:44;;;;;;;13.63;12.35;;;14.60;39.60;;;;;;5179621;28;20053;-65
2021/03/26 10:49:30;;;;;;;14.35;12.90;;;14.80;37.90;;;;;;5187331;28;20112;-65
2021/03/26 10:52:10;;;;;;;16.05;14.55;;;14.80;37.80;;;;;;5185511;28;20125;-66
2021/03/26 10:54:45;;;;;;;13.50;12.30;;;14.90;38.10;;;;;;5188417;28;20053;-66
2021/03/26 10:57:37;;;;;;;13.88;12.63;;;14.90;36.70;;;;;;5184376;28;20226;-65
2021/03/26 11:00:33;;;;;;;14.48;13.15;;;15.00;36.70;;;;;;5187011;28;20041;-66
2021/03/26 11:03:26;;;;;;;14.60;13.18;;;15.00;37.00;;;;;;5188538;28;20069;-65
2021/03/26 11:06:08;;;;;;;14.38;13.07;;;15.00;36.20;;;;;;5185802;28;20447;-65
2021/03/26 11:08:56;;;;;;;13.70;12.50;;;15.10;36.30;;;;;;5185209;28;20042;-65
2021/03/26 11:11:30;;;;;;;14.95;13.40;;;15.10;35.70;;;;;;5184214;28;20050;-67
2021/03/26 11:14:31;;;;;;;14.32;12.82;;;15.10;33.80;;;;;;5187749;28;20682;-64
2021/03/26 11:17:24;;;;;;;13.85;12.70;;;15.20;34.70;;;;;;5187194;28;20059;-65
2021/03/26 11:20:11;;;;;;;12.98;11.70;;;15.20;32.30;;;;;;5187906;28;20709;-65
2021/03/26 11:23:02;;;;;;;16.35;12.52;;;15.30;31.20;;;;;;5188390;28;20132;-65
2021/03/26 11:25:43;;;;;;;12.80;11.80;;;15.30;31.00;;;;;;5186368;28;20060;-65
2021/03/26 11:28:19;;;;;;;12.68;11.63;;;15.40;31.20;;;;;;5185463;28;20062;-64
2021/03/26 11:31:14;;;;;;;13.15;12.05;;;15.50;30.80;;;;;;5184002;28;20116;-64
2021/03/26 11:34:24;;;;;;;13.27;12.18;;;15.60;30.00;;;;;;5207546;28;20181;-64
2021/03/26 11:37:33;;;;;;;13.32;12.23;;;15.70;30.80;;;;;;5177653;28;20434;-65
2021/03/26 11:40:14;;;;;;;13.07;11.88;;;15.70;30.20;;;;;;5184562;28;20156;-64
2021/03/26 11:43:19;;;;;;;13.43;12.15;;;15.70;30.30;;;;;;5186485;28;20514;-64
2021/03/26 11:46:03;;;;;;;13.60;12.05;;;15.80;30.00;;;;;;5187089;28;20053;-64
2021/03/26 11:48:58;;;;;;;13.38;12.18;;;15.80;30.40;;;;;;5185115;28;20045;-65
2021/03/26 11:51:44;;;;;;;13.55;12.45;;;16.00;30.30;;;;;;5184248;28;20803;-65
2021/03/26 11:54:43;;;;;;;13.43;12.32;;;16.10;30.70;;;;;;5187457;28;20046;-64
2021/03/26 11:57:36;;;;;;;12.95;11.85;;;16.20;30.00;;;;;;5184255;28;20085;-65
2021/03/26 12:00:20;;;;;;;13.23;12.13;;;16.20;30.30;;;;;;5187453;28;20620;-65
2021/03/26 12:03:07;;;;;;;13.18;12.02;;;16.40;30.60;;;;;;5189049;28;20469;-65
2021/03/26 12:06:05;;;;;;;13.48;12.38;;;16.40;29.60;;;;;;5187097;28;20037;-66
2021/03/26 12:08:58;;;;;;;13.82;12.65;;;16.50;29.80;;;;;;5188489;28;20072;-64
2021/03/26 12:11:48;;;;;;;;;;;16.60;29.90;;;;;;5187227;28;20170;-65
2021/03/26 12:14:26;;;;;;;13.18;12.07;;;16.70;30.10;;;;;;5188692;28;19968;-65
2021/03/26 12:17:07;;;;;;;12.63;11.63;;;16.80;29.10;;;;;;5187135;28;20583;-65
2021/03/26 12:19:39;;;;;;;13.23;12.10;;;16.90;28.90;;;;;;5186073;28;20060;-65
2021/03/26 12:22:22;;;;;;;12.63;11.52;;;17.00;29.20;;;;;;5186304;28;20045;-65
2021/03/26 12:25:31;;;;;;;13.70;12.57;;;17.00;29.20;;;;;;5187015;28;20045;-64
2021/03/26 12:28:42;;;;;;;13.32;12.23;;;17.00;28.70;;;;;;5184963;28;20041;-64
2021/03/26 12:31:35;;;;;;;13.88;12.63;;;17.00;28.10;;;;;;5188949;28;20518;-65
2021/03/26 12:34:44;;;;;;;13.45;12.23;;;17.10;28.70;;;;;;5186286;28;20049;-65
2021/03/26 12:37:25;;;;;;;13.38;12.27;;;17.10;28.20;;;;;;5189323;28;20046;-64
2021/03/26 12:40:13;;;;;;;13.68;12.40;;;17.10;28.10;;;;;;5190816;28;20041;-64
2021/03/26 12:42:52;;;;;;;13.07;11.90;;;17.20;27.40;;;;;;5220639;28;20064;-66
2021/03/26 12:45:41;;;;;;;13.80;12.60;;;17.20;28.10;;;;;;5191001;28;20280;-65
2021/03/26 12:48:26;;;;;;;14.38;12.90;;;17.30;28.10;;;;;;5189649;28;21059;-65
2021/03/26 12:51:21;;;;;;;14.60;13.35;;;17.40;27.70;;;;;;5188982;28;20208;-65
2021/03/26 12:54:17;;;;;;;14.55;13.25;;;17.40;27.50;;;;;;5189424;28;20539;-65
2021/03/26 12:57:36;;;;;;;14.52;13.35;;;17.40;27.80;;;;;;5182858;28;20574;-65
2021/03/26 13:00:30;;;;;;;13.95;12.75;;;17.50;27.00;;;;;;5181224;28;20154;-65
2021/03/26 13:03:48;;;;;;;14.27;13.07;;;17.60;27.30;;;;;;5187348;28;20514;-65
2021/03/26 13:06:33;;;;;;;13.90;12.90;;;17.60;27.40;;;;;;5189268;28;20057;-65
2021/03/26 13:09:34;;;;;;;14.60;13.45;;;17.60;27.40;;;;;;5187964;28;20081;-65
2021/03/26 13:12:10;;;;;;;14.43;13.32;;;17.60;27.70;;;;;;5189170;28;20572;-65
2021/03/26 13:14:52;;;;;;;13.75;12.73;;;17.70;27.70;;;;;;5192122;28;20068;-65
2021/03/26 13:17:30;;;;;;;13.80;12.70;;;17.70;27.90;;;;;;5190851;28;20054;-65
2021/03/26 13:20:13;;;;;;;13.98;12.88;;;17.70;27.70;;;;;;5190625;28;20439;-65
2021/03/26 13:22:46;;;;;;;13.90;12.73;;;17.70;28.20;;;;;;5192078;28;20114;-65
2021/03/26 13:25:45;;;;;;;14.35;13.05;;;17.70;27.40;;;;;;5192559;28;20049;-64
2021/03/26 13:28:35;;;;;;;14.27;13.18;;;17.70;28.00;;;;;;5190971;28;20053;-64
2021/03/26 13:31:13;;;;;;;14.15;13.05;;;17.80;28.10;;;;;;5186177;28;20037;-65
2021/03/26 13:33:54;;;;;;;14.98;13.88;;;17.90;27.90;;;;;;5187774;28;20061;-65
2021/03/26 13:36:26;;;;;;;14.63;13.52;;;17.90;26.60;;;;;;5186685;28;20044;-65
2021/03/26 13:39:27;;;;;;;14.35;13.25;;;17.90;26.90;;;;;;5187295;28;20034;-65
2021/03/26 13:42:20;;;;;;;15.18;13.98;;;17.90;27.20;;;;;;5186854;28;20119;-63
2021/03/26 13:45:03;;;;;;;14.60;13.50;;;18.00;26.80;;;;;;5186134;28;20053;-65
2021/03/26 13:47:57;;;;;;;15.05;13.88;;;18.00;27.10;;;;;;5186981;28;20080;-64
2021/03/26 13:50:41;;;;;;;15.35;14.10;;;18.10;26.70;;;;;;5187432;28;20732;-65
2021/03/26 13:53:32;;;;;;;16.08;14.77;;;18.00;26.90;;;;;;5184807;28;20053;-64
2021/03/26 13:56:13;;;;;;;;;;;18.10;27.00;;;;;;5186360;28;20133;-65
2021/03/26 13:59:01;;;;;;;14.15;13.05;;;18.20;26.30;;;;;;5188157;28;19937;-64
2021/03/26 14:01:45;;;;;;;15.02;13.82;;;18.30;26.40;;;;;;5186469;28;20606;-65
2021/03/26 14:04:28;;;;;;;14.90;13.80;;;18.30;26.00;;;;;;5189574;28;20041;-64
2021/03/26 14:07:08;;;;;;;15.15;13.95;;;18.30;26.20;;;;;;5187165;28;20038;-64
2021/03/26 14:10:01;;;;;;;15.38;14.18;;;18.30;26.50;;;;;;5187435;28;20049;-64
2021/03/26 14:12:37;;;;;;;15.25;14.15;;;18.40;26.90;;;;;;5185124;28;20064;-65
2021/03/26 14:15:21;;;;;;;15.13;13.93;;;18.30;26.80;;;;;;5188307;28;20053;-65
2021/03/26 14:18:26;;;;;;;14.57;13.38;;;17.90;27.40;;;;;;5184783;28;20060;-65
2021/03/26 14:21:25;;;;;;;14.23;13.18;;;17.60;27.30;;;;;;5186793;28;20060;-65
2021/03/26 14:24:06;;;;;;;14.10;13.00;;;17.20;28.20;;;;;;5188640;28;20046;-64
2021/03/26 14:27:08;;;;;;;14.57;13.38;;;17.30;28.40;;;;;;5188939;28;20077;-65
2021/03/26 14:29:52;;;;;;;14.55;13.35;;;17.40;28.50;;;;;;5187703;28;20139;-64
2021/03/26 14:32:37;;;;;;;14.48;13.38;;;17.70;28.20;;;;;;5184973;28;20052;-64